Time;durP1;ratioP1;P1;durP2;ratioP2;P2;SDS_P1;SDS_P2;PMS_P1;PMS_P2;Temp;Humidity;BMP_temperature;BMP_pressure;BME280_temperature;BME280_humidity;BME280_pressure;Samples;Min_cycle;Max_cycle;Signal;HPM_P1;HPM_P2
2021/07/09 00:01:28;;;;;;;2.28;2.08;;;16.00;99.90;;;;;;4957959;28;20204;-72
2021/07/09 00:03:54;;;;;;;1.85;1.75;;;15.90;99.90;;;;;;4956309;28;20553;-71
2021/07/09 00:06:21;;;;;;;1.77;1.55;;;16.00;99.90;;;;;;4958075;28;20872;-71
2021/07/09 00:08:47;;;;;;;1.73;1.63;;;15.90;99.90;;;;;;4959350;28;20613;-72
2021/07/09 00:11:14;;;;;;;3.80;2.42;;;16.00;99.90;;;;;;4958370;28;20268;-74
2021/07/09 00:13:39;;;;;;;2.20;1.90;;;15.90;99.90;;;;;;4960842;28;20264;-72
2021/07/09 00:16:05;;;;;;;2.00;1.80;;;15.80;99.90;;;;;;4958567;28;20193;-72
2021/07/09 00:18:32;;;;;;;1.80;1.67;;;15.70;99.90;;;;;;4957115;28;20194;-72
2021/07/09 00:20:58;;;;;;;2.33;2.13;;;15.60;99.90;;;;;;4959028;28;20747;-72
2021/07/09 00:23:24;;;;;;;2.50;2.30;;;15.70;99.90;;;;;;4953782;28;20219;-71
2021/07/09 00:25:50;;;;;;;2.40;2.20;;;15.70;99.90;;;;;;4956696;28;20189;-72
2021/07/09 00:28:15;;;;;;;3.08;2.45;;;15.70;99.90;;;;;;4956773;28;20598;-72
2021/07/09 00:30:41;;;;;;;2.30;2.10;;;15.70;99.90;;;;;;4956790;28;20213;-72
2021/07/09 00:33:06;;;;;;;2.50;2.30;;;15.70;99.90;;;;;;4955227;28;20221;-72
2021/07/09 00:35:32;;;;;;;2.53;2.33;;;15.70;99.90;;;;;;4962410;28;20664;-72
2021/07/09 00:37:58;;;;;;;2.33;1.92;;;15.70;99.90;;;;;;4956380;28;20193;-73
2021/07/09 00:40:23;;;;;;;2.28;2.08;;;15.70;99.90;;;;;;4955962;28;20259;-72
2021/07/09 00:42:49;;;;;;;2.00;1.90;;;15.70;99.90;;;;;;4958093;28;20193;-73
2021/07/09 00:45:15;;;;;;;2.20;1.83;;;15.70;99.90;;;;;;4954961;28;20244;-72
2021/07/09 00:47:46;;;;;;;2.95;2.15;;;15.70;99.90;;;;;;4959081;28;20200;-71
2021/07/09 00:50:12;;;;;;;2.58;2.38;;;15.60;99.90;;;;;;4958919;28;20209;-71
2021/07/09 00:52:38;;;;;;;2.35;2.10;;;15.60;99.90;;;;;;4953979;28;20201;-72
2021/07/09 00:55:06;;;;;;;1.92;1.83;;;15.60;99.90;;;;;;4955420;28;20291;-72
2021/07/09 00:57:32;;;;;;;2.55;2.35;;;15.60;99.90;;;;;;4955070;28;20653;-71
2021/07/09 00:59:58;;;;;;;3.97;2.38;;;15.60;99.90;;;;;;4959545;28;20240;-71
2021/07/09 01:02:23;;;;;;;2.22;2.03;;;15.60;99.90;;;;;;4955691;28;20219;-71
2021/07/09 01:04:56;;;;;;;3.22;2.50;;;15.50;99.90;;;;;;4958106;28;20557;-72
2021/07/09 01:07:23;;;;;;;4.55;2.70;;;15.50;99.90;;;;;;4956617;28;20255;-71
2021/07/09 01:09:49;;;;;;;2.30;2.10;;;15.40;99.90;;;;;;4956660;28;20318;-72
2021/07/09 01:12:15;;;;;;;3.13;2.50;;;15.40;99.90;;;;;;4955840;28;20707;-72
2021/07/09 01:14:41;;;;;;;2.17;2.03;;;15.50;99.90;;;;;;4955279;28;20240;-72
2021/07/09 01:17:07;;;;;;;2.85;1.90;;;15.50;99.90;;;;;;4959997;28;20223;-73
2021/07/09 01:19:33;;;;;;;3.70;2.17;;;15.60;99.90;;;;;;4959751;28;20201;-71
2021/07/09 01:21:58;;;;;;;3.22;2.05;;;15.60;99.90;;;;;;4958783;28;20645;-72
2021/07/09 01:24:25;;;;;;;4.35;2.40;;;15.70;99.90;;;;;;4956332;28;20682;-72
2021/07/09 01:26:51;;;;;;;3.20;1.83;;;15.70;99.90;;;;;;4956686;28;20435;-72
2021/07/09 01:29:16;;;;;;;4.00;2.20;;;15.70;99.90;;;;;;4956128;28;20248;-73
2021/07/09 01:31:43;;;;;;;3.60;2.28;;;15.80;99.90;;;;;;4958157;28;20259;-72
2021/07/09 01:34:09;;;;;;;3.08;2.28;;;15.90;99.90;;;;;;4956037;28;20568;-72
2021/07/09 01:36:35;;;;;;;2.17;1.98;;;16.00;99.90;;;;;;4958393;28;20177;-71
2021/07/09 01:39:01;;;;;;;2.47;1.85;;;16.10;99.90;;;;;;4956934;28;20707;-72
2021/07/09 01:41:27;;;;;;;4.82;2.60;;;16.10;99.90;;;;;;4956660;28;20181;-72
2021/07/09 01:43:53;;;;;;;2.80;1.85;;;16.00;99.90;;;;;;4957649;28;20653;-71
2021/07/09 01:46:19;;;;;;;3.05;2.10;;;15.80;99.90;;;;;;4956022;28;20200;-71
2021/07/09 01:48:46;;;;;;;2.90;2.17;;;15.70;99.90;;;;;;4956687;28;20189;-72
2021/07/09 01:51:13;;;;;;;4.68;2.40;;;15.60;99.90;;;;;;4957723;28;20187;-72
2021/07/09 01:53:40;;;;;;;3.05;2.40;;;15.50;99.90;;;;;;4961716;28;20974;-70
2021/07/09 01:56:06;;;;;;;2.35;2.15;;;15.60;99.90;;;;;;4956268;28;20185;-70
2021/07/09 01:58:32;;;;;;;5.10;2.40;;;15.70;99.90;;;;;;4959356;28;20555;-72
2021/07/09 02:00:58;;;;;;;2.35;2.15;;;15.80;99.90;;;;;;4953721;28;20217;-72
2021/07/09 02:03:23;;;;;;;3.22;2.67;;;15.80;99.90;;;;;;4958439;28;20279;-72
2021/07/09 02:05:49;;;;;;;2.35;2.15;;;15.90;99.90;;;;;;4957686;28;20240;-73
2021/07/09 02:08:15;;;;;;;3.17;2.58;;;15.80;99.90;;;;;;4955683;28;20270;-72
2021/07/09 02:10:43;;;;;;;2.65;2.45;;;15.90;99.90;;;;;;4955651;28;20206;-73
2021/07/09 02:13:10;;;;;;;3.35;2.50;;;15.90;99.90;;;;;;4957090;28;20649;-72
2021/07/09 02:15:38;;;;;;;4.07;2.53;;;15.90;99.90;;;;;;4954907;28;20216;-72
2021/07/09 02:18:05;;;;;;;4.13;2.35;;;16.00;99.90;;;;;;4955465;28;20192;-72
2021/07/09 02:20:31;;;;;;;2.42;2.22;;;16.00;99.90;;;;;;4957305;28;20216;-72
2021/07/09 02:23:00;;;;;;;2.45;2.25;;;15.90;99.90;;;;;;4955180;28;20184;-72
2021/07/09 02:25:26;;;;;;;4.50;2.40;;;16.00;99.90;;;;;;4957846;28;20224;-72
2021/07/09 02:27:54;;;;;;;3.20;2.90;;;16.00;99.90;;;;;;4955284;28;20248;-73
2021/07/09 02:30:21;;;;;;;5.80;2.30;;;16.00;99.90;;;;;;4954734;28;20552;-72
2021/07/09 02:32:48;;;;;;;2.58;1.60;;;16.20;99.90;;;;;;4952655;28;20196;-74
2021/07/09 02:35:18;;;;;;;2.67;2.33;;;16.20;99.90;;;;;;4954728;28;20741;-74
2021/07/09 02:37:45;;;;;;;3.17;2.67;;;16.20;99.90;;;;;;4959368;28;20267;-71
2021/07/09 02:40:14;;;;;;;2.88;2.30;;;16.30;99.90;;;;;;4953363;28;20204;-73
2021/07/09 02:42:49;;;;;;;2.85;2.47;;;16.30;99.90;;;;;;4954125;28;20181;-71
2021/07/09 02:45:15;;;;;;;3.58;2.80;;;16.30;99.90;;;;;;4955541;28;20290;-71
2021/07/09 02:47:42;;;;;;;2.22;2.05;;;16.40;99.90;;;;;;4951278;28;20221;-71
2021/07/09 02:50:10;;;;;;;4.53;2.33;;;16.30;99.90;;;;;;4953936;28;20209;-71
2021/07/09 02:52:36;;;;;;;3.00;2.42;;;16.30;99.90;;;;;;4956600;28;20193;-71
2021/07/09 02:55:07;;;;;;;4.10;2.67;;;16.30;99.90;;;;;;4954714;28;20217;-71
2021/07/09 02:57:33;;;;;;;3.33;2.75;;;16.30;99.90;;;;;;4954867;28;20688;-71
2021/07/09 02:59:58;;;;;;;2.85;2.53;;;16.40;99.90;;;;;;4954749;28;20244;-71
2021/07/09 03:02:26;;;;;;;3.97;3.00;;;16.40;99.90;;;;;;4956344;28;20241;-71
2021/07/09 03:04:51;;;;;;;2.78;2.58;;;16.50;99.90;;;;;;4955883;28;20192;-71
2021/07/09 03:07:17;;;;;;;3.15;2.67;;;16.40;99.90;;;;;;4955599;28;20213;-71
2021/07/09 03:09:43;;;;;;;5.00;3.10;;;16.40;99.90;;;;;;4957868;28;20206;-72
2021/07/09 03:12:09;;;;;;;2.63;2.42;;;16.40;99.90;;;;;;4953467;28;20208;-71
2021/07/09 03:14:35;;;;;;;2.58;2.30;;;16.40;99.90;;;;;;4954565;28;20300;-71
2021/07/09 03:17:01;;;;;;;4.40;2.78;;;16.40;99.90;;;;;;4953394;28;20664;-72
2021/07/09 03:19:27;;;;;;;5.40;2.55;;;16.40;99.90;;;;;;4952905;28;20216;-72
2021/07/09 03:21:52;;;;;;;4.03;2.60;;;16.40;99.90;;;;;;4955394;28;20177;-71
2021/07/09 03:24:18;;;;;;;6.18;3.40;;;16.40;99.90;;;;;;4962825;28;20200;-76
2021/07/09 03:26:44;;;;;;;5.70;3.15;;;16.40;99.90;;;;;;4962231;28;20200;-71
2021/07/09 03:29:10;;;;;;;5.13;2.80;;;16.50;99.90;;;;;;4958148;28;20209;-72
2021/07/09 03:31:35;;;;;;;5.78;2.58;;;16.60;99.90;;;;;;4951700;28;20204;-72
2021/07/09 03:34:01;;;;;;;3.22;2.78;;;16.50;99.90;;;;;;4954458;28;20556;-72
2021/07/09 03:36:27;;;;;;;4.18;2.92;;;16.60;99.90;;;;;;4961316;28;20637;-73
2021/07/09 03:38:57;;;;;;;4.40;2.92;;;16.60;99.90;;;;;;4955942;28;20660;-72
2021/07/09 03:41:23;;;;;;;4.88;3.13;;;16.70;99.90;;;;;;4961911;28;20216;-72
2021/07/09 03:43:49;;;;;;;3.72;2.45;;;16.60;99.90;;;;;;4954217;28;20178;-73
2021/07/09 03:46:15;;;;;;;3.95;2.30;;;16.60;99.90;;;;;;4955805;28;20192;-72
2021/07/09 03:48:41;;;;;;;3.63;2.78;;;16.50;99.90;;;;;;4958732;28;20196;-72
2021/07/09 03:51:07;;;;;;;3.67;2.75;;;16.60;99.90;;;;;;4952746;28;20195;-73
2021/07/09 03:53:33;;;;;;;2.67;2.40;;;16.70;99.90;;;;;;4957254;28;20189;-73
2021/07/09 03:55:59;;;;;;;2.95;2.65;;;16.70;99.90;;;;;;4954404;28;20196;-72
2021/07/09 03:58:25;;;;;;;2.70;2.50;;;16.70;99.90;;;;;;4953785;28;20648;-72
2021/07/09 04:00:51;;;;;;;8.23;2.92;;;16.70;99.90;;;;;;4955555;28;20217;-73
2021/07/09 04:03:16;;;;;;;5.22;2.90;;;16.70;99.90;;;;;;4958574;28;20244;-72
2021/07/09 04:05:42;;;;;;;3.80;2.88;;;16.80;99.90;;;;;;4954126;28;20189;-73
2021/07/09 04:08:08;;;;;;;4.07;2.30;;;16.80;99.90;;;;;;4959105;28;20214;-72
2021/07/09 04:10:33;;;;;;;5.15;2.92;;;16.80;99.90;;;;;;4954813;28;20212;-72
2021/07/09 04:12:59;;;;;;;3.05;2.75;;;16.90;99.90;;;;;;4956328;28;20205;-71
2021/07/09 04:15:25;;;;;;;3.45;3.00;;;16.90;99.90;;;;;;4959991;28;20253;-72
2021/07/09 04:17:50;;;;;;;4.03;3.13;;;16.90;99.90;;;;;;4955483;28;20203;-72
2021/07/09 04:20:16;;;;;;;3.60;3.30;;;17.00;99.90;;;;;;4958642;28;20695;-73
2021/07/09 04:22:42;;;;;;;3.78;3.00;;;17.00;99.90;;;;;;4956451;28;20189;-73
2021/07/09 04:25:10;;;;;;;4.50;3.30;;;17.00;99.90;;;;;;4954419;28;20220;-74
2021/07/09 04:27:38;;;;;;;3.95;3.40;;;17.00;99.90;;;;;;4953869;28;20285;-72
2021/07/09 04:30:05;;;;;;;5.15;3.42;;;17.10;99.90;;;;;;4948949;28;20268;-72
2021/07/09 04:32:30;;;;;;;3.97;3.60;;;17.10;99.90;;;;;;4961125;28;20189;-72
2021/07/09 04:34:56;;;;;;;3.88;3.33;;;17.10;99.90;;;;;;4956061;28;20201;-74
2021/07/09 04:37:21;;;;;;;3.30;3.00;;;17.20;99.90;;;;;;4952615;28;20193;-72
2021/07/09 04:39:47;;;;;;;4.78;3.83;;;17.30;99.90;;;;;;4964256;28;20681;-73
2021/07/09 04:42:13;;;;;;;4.00;3.60;;;17.30;99.90;;;;;;4953119;28;20649;-73
2021/07/09 04:44:39;;;;;;;4.28;3.88;;;17.40;99.90;;;;;;4957620;28;20197;-72
2021/07/09 04:47:04;;;;;;;3.95;3.58;;;17.50;99.90;;;;;;4957141;28;20193;-72
2021/07/09 04:49:30;;;;;;;5.95;4.03;;;17.40;99.90;;;;;;4955094;28;20219;-73
2021/07/09 04:51:56;;;;;;;4.88;4.35;;;17.40;99.90;;;;;;4953439;28;20331;-73
2021/07/09 04:54:22;;;;;;;6.30;4.13;;;17.40;99.90;;;;;;4956683;28;20609;-71
2021/07/09 04:56:48;;;;;;;8.55;4.32;;;17.50;99.90;;;;;;4957663;28;20941;-73
2021/07/09 04:59:14;;;;;;;6.63;4.72;;;17.40;99.90;;;;;;4957051;28;20300;-72
2021/07/09 05:01:39;;;;;;;6.55;4.63;;;17.40;99.90;;;;;;4957490;28;20819;-72
2021/07/09 05:04:07;;;;;;;7.53;5.20;;;17.40;99.90;;;;;;4957812;28;20185;-73
2021/07/09 05:06:33;;;;;;;6.45;5.03;;;17.40;99.90;;;;;;4956132;28;20181;-72
2021/07/09 05:09:00;;;;;;;6.07;4.30;;;17.40;99.90;;;;;;4959695;28;20725;-73
2021/07/09 05:11:25;;;;;;;5.85;4.40;;;17.50;99.90;;;;;;4958846;28;20196;-72
2021/07/09 05:13:51;;;;;;;5.88;4.70;;;17.40;99.90;;;;;;4957934;28;20221;-72
2021/07/09 05:16:17;;;;;;;4.70;4.13;;;17.40;99.90;;;;;;4957551;28;20286;-72
2021/07/09 05:18:43;;;;;;;6.25;4.65;;;17.40;99.90;;;;;;4959915;28;20545;-72
2021/07/09 05:21:09;;;;;;;5.10;4.60;;;17.40;99.90;;;;;;4957393;28;20182;-72
2021/07/09 05:23:34;;;;;;;6.25;4.28;;;17.40;99.90;;;;;;4960013;28;20236;-72
2021/07/09 05:26:00;;;;;;;4.60;4.20;;;17.40;99.90;;;;;;4954505;28;20248;-73
2021/07/09 05:28:26;;;;;;;6.70;4.93;;;17.30;99.90;;;;;;4958098;28;20200;-72
2021/07/09 05:30:52;;;;;;;5.38;4.88;;;17.30;99.90;;;;;;4959323;28;20213;-73
2021/07/09 05:33:17;;;;;;;5.28;4.75;;;17.30;99.90;;;;;;4954418;28;20184;-72
2021/07/09 05:35:44;;;;;;;5.68;4.47;;;17.30;99.90;;;;;;4956493;28;20239;-71
2021/07/09 05:38:10;;;;;;;4.72;4.28;;;17.40;99.90;;;;;;4954895;28;20220;-72
2021/07/09 05:40:36;;;;;;;5.57;4.93;;;17.50;99.90;;;;;;4958700;28;20208;-72
2021/07/09 05:43:02;;;;;;;5.38;4.88;;;17.50;99.90;;;;;;4957676;28;20196;-73
2021/07/09 05:45:29;;;;;;;5.32;4.82;;;17.60;99.90;;;;;;4953057;28;20597;-72
2021/07/09 05:47:55;;;;;;;6.32;4.80;;;17.70;99.90;;;;;;4956284;28;20200;-72
2021/07/09 05:50:21;;;;;;;6.28;4.85;;;17.80;99.90;;;;;;4956678;28;20209;-72
2021/07/09 05:52:48;;;;;;;7.05;5.13;;;17.90;99.90;;;;;;4958053;28;20192;-72
2021/07/09 05:55:14;;;;;;;5.05;4.47;;;17.90;99.90;;;;;;4955494;28;20200;-72
2021/07/09 05:57:40;;;;;;;5.75;4.95;;;17.90;99.90;;;;;;4957390;28;20189;-71
2021/07/09 06:00:08;;;;;;;5.88;4.90;;;17.90;99.90;;;;;;4955828;28;20202;-72
2021/07/09 06:02:34;;;;;;;5.00;4.50;;;18.10;99.90;;;;;;4953827;28;20268;-72
2021/07/09 06:04:59;;;;;;;5.53;4.90;;;18.10;99.90;;;;;;4957685;28;20673;-72
2021/07/09 06:07:25;;;;;;;5.78;4.53;;;18.10;99.90;;;;;;4953458;28;20733;-72
2021/07/09 06:09:50;;;;;;;5.22;4.68;;;18.00;99.90;;;;;;4960441;28;20225;-71
2021/07/09 06:12:16;;;;;;;5.18;4.68;;;18.00;99.90;;;;;;4959087;28;20184;-72
2021/07/09 06:14:42;;;;;;;5.32;4.82;;;18.10;99.90;;;;;;4955588;28;20213;-71
2021/07/09 06:17:07;;;;;;;5.28;4.75;;;18.00;99.90;;;;;;4959284;28;20235;-72
2021/07/09 06:19:33;;;;;;;5.45;4.53;;;17.90;99.90;;;;;;4954168;28;20609;-74
2021/07/09 06:21:58;;;;;;;4.95;4.47;;;17.90;99.90;;;;;;4955979;28;20189;-71
2021/07/09 06:24:24;;;;;;;6.22;5.22;;;17.90;99.90;;;;;;4953730;28;20200;-73
2021/07/09 06:26:50;;;;;;;5.95;5.00;;;18.00;99.90;;;;;;4950730;28;20195;-73
2021/07/09 06:29:15;;;;;;;5.90;4.97;;;18.10;99.90;;;;;;4954141;28;20212;-72
2021/07/09 06:31:42;;;;;;;5.88;5.28;;;17.90;99.90;;;;;;4949278;28;20555;-75
2021/07/09 06:34:07;;;;;;;5.05;4.18;;;18.10;99.90;;;;;;4955427;28;20219;-73
2021/07/09 06:36:33;;;;;;;9.15;5.63;;;18.00;99.90;;;;;;4956757;28;20181;-72
2021/07/09 06:39:00;;;;;;;6.32;5.20;;;18.10;99.90;;;;;;4950190;28;20213;-72
2021/07/09 06:41:26;;;;;;;6.57;5.38;;;18.30;99.90;;;;;;4956920;28;20178;-72
2021/07/09 06:43:52;;;;;;;5.95;5.07;;;18.40;99.90;;;;;;4953944;28;20689;-71
2021/07/09 06:46:19;;;;;;;5.95;4.82;;;18.50;99.90;;;;;;4956664;28;20189;-72
2021/07/09 06:48:44;;;;;;;5.55;4.82;;;18.70;99.90;;;;;;4955866;28;20642;-71
2021/07/09 06:51:11;;;;;;;5.00;4.45;;;18.80;99.90;;;;;;4954783;28;20193;-73
2021/07/09 06:53:38;;;;;;;6.72;4.80;;;18.90;99.90;;;;;;4955673;28;20185;-72
2021/07/09 06:56:04;;;;;;;5.15;4.65;;;19.00;99.90;;;;;;4953242;28;20184;-71
2021/07/09 06:58:30;;;;;;;5.90;4.88;;;19.20;99.90;;;;;;4953284;28;20182;-72
2021/07/09 07:00:56;;;;;;;5.40;4.90;;;19.20;99.90;;;;;;4956989;28;20236;-72
2021/07/09 07:03:21;;;;;;;5.28;4.78;;;19.30;99.90;;;;;;4954795;28;20722;-72
2021/07/09 07:05:47;;;;;;;9.95;5.13;;;19.40;99.90;;;;;;4952175;28;20271;-73
2021/07/09 07:08:17;;;;;;;7.38;5.40;;;19.40;99.90;;;;;;4958175;28;20208;-72
2021/07/09 07:10:44;;;;;;;5.20;4.70;;;19.40;99.90;;;;;;4960080;28;20744;-71
2021/07/09 07:13:10;;;;;;;5.50;4.63;;;19.40;99.90;;;;;;4955381;28;20299;-72
2021/07/09 07:15:36;;;;;;;5.88;4.72;;;19.50;99.90;;;;;;4959077;28;20209;-72
2021/07/09 07:18:02;;;;;;;5.25;4.75;;;19.50;99.90;;;;;;4955249;28;20200;-72
2021/07/09 07:20:29;;;;;;;7.07;5.38;;;19.50;99.90;;;;;;4956669;28;20205;-71
2021/07/09 07:22:55;;;;;;;7.78;5.50;;;19.60;99.90;;;;;;4960189;28;20177;-70
2021/07/09 07:25:20;;;;;;;5.40;4.90;;;19.60;99.90;;;;;;4958688;28;20732;-71
2021/07/09 07:27:46;;;;;;;7.97;6.28;;;19.60;99.90;;;;;;4954761;28;20186;-72
2021/07/09 07:30:13;;;;;;;7.72;5.88;;;19.50;99.90;;;;;;4958196;28;20259;-72
2021/07/09 07:32:41;;;;;;;7.97;6.13;;;19.30;99.90;;;;;;4952081;28;20755;-71
2021/07/09 07:35:07;;;;;;;7.25;5.28;;;19.30;99.90;;;;;;4953891;28;20207;-72
2021/07/09 07:37:33;;;;;;;6.53;5.60;;;19.10;99.90;;;;;;4957117;28;20671;-70
2021/07/09 07:39:58;;;;;;;6.55;5.82;;;19.00;99.90;;;;;;4964258;28;20217;-71
2021/07/09 07:42:24;;;;;;;5.22;4.72;;;19.00;99.90;;;;;;4957935;28;20292;-71
2021/07/09 07:44:50;;;;;;;6.18;5.53;;;19.20;99.90;;;;;;4957598;28;20204;-71
2021/07/09 07:47:21;;;;;;;6.35;4.97;;;19.40;99.90;;;;;;4952981;28;20209;-73
2021/07/09 07:49:47;;;;;;;5.90;5.15;;;19.50;99.90;;;;;;4949935;28;20205;-71
2021/07/09 07:52:12;;;;;;;6.05;5.30;;;19.40;99.90;;;;;;4959290;28;20197;-71
2021/07/09 07:54:38;;;;;;;6.63;5.00;;;19.50;99.90;;;;;;4951471;28;20224;-71
2021/07/09 07:57:04;;;;;;;6.13;5.53;;;19.60;99.90;;;;;;4953729;28;20229;-70
2021/07/09 07:59:29;;;;;;;5.40;4.88;;;19.60;99.90;;;;;;4948901;28;20280;-70
2021/07/09 08:01:55;;;;;;;6.05;5.45;;;19.60;99.90;;;;;;4952424;28;20233;-70
2021/07/09 08:04:20;;;;;;;12.75;5.43;;;19.60;99.90;;;;;;4960849;28;20188;-70
2021/07/09 08:06:46;;;;;;;6.95;4.97;;;19.50;99.90;;;;;;4958737;28;20272;-71
2021/07/09 08:09:12;;;;;;;5.43;4.93;;;19.30;99.90;;;;;;4950826;28;20220;-71
2021/07/09 08:11:37;;;;;;;7.47;4.88;;;19.30;99.90;;;;;;4954397;28;20284;-70
2021/07/09 08:14:03;;;;;;;4.80;4.35;;;19.50;99.90;;;;;;4956744;28;20260;-71
2021/07/09 08:16:29;;;;;;;5.32;4.82;;;19.50;99.90;;;;;;4955462;28;20637;-70
2021/07/09 08:18:54;;;;;;;5.32;4.47;;;19.50;99.90;;;;;;4953450;28;20186;-69
2021/07/09 08:21:20;;;;;;;4.93;4.43;;;19.50;99.90;;;;;;4949173;28;20189;-69
2021/07/09 08:23:46;;;;;;;6.55;5.05;;;19.50;99.90;;;;;;4950105;28;20182;-69
2021/07/09 08:26:11;;;;;;;6.05;4.75;;;19.50;99.90;;;;;;4957817;28;20202;-69
2021/07/09 08:28:37;;;;;;;7.60;4.60;;;19.50;99.90;;;;;;4954737;28;20181;-69
2021/07/09 08:31:03;;;;;;;4.43;4.03;;;19.50;99.90;;;;;;4956422;28;20656;-72
2021/07/09 08:33:28;;;;;;;4.78;4.28;;;19.40;99.90;;;;;;4957034;28;20190;-70
2021/07/09 08:35:54;;;;;;;5.20;4.20;;;19.40;99.90;;;;;;4955338;28;20587;-70
2021/07/09 08:38:20;;;;;;;4.65;4.13;;;19.40;99.90;;;;;;4952974;28;20195;-70
2021/07/09 08:40:45;;;;;;;5.35;4.13;;;19.40;99.90;;;;;;4951460;28;20229;-69
2021/07/09 08:43:11;;;;;;;5.57;4.35;;;19.40;99.90;;;;;;4948735;28;20700;-69
2021/07/09 08:45:38;;;;;;;4.32;3.72;;;19.40;99.90;;;;;;4952791;28;20185;-67
2021/07/09 08:48:05;;;;;;;6.15;4.68;;;19.40;99.90;;;;;;4959510;28;20574;-69
2021/07/09 08:50:31;;;;;;;4.55;3.97;;;19.40;99.90;;;;;;4947772;28;20210;-70
2021/07/09 08:52:56;;;;;;;4.47;4.07;;;19.40;99.90;;;;;;4958908;28;20316;-69
2021/07/09 08:55:23;;;;;;;4.63;3.90;;;19.30;99.90;;;;;;4958657;28;20213;-70
2021/07/09 08:57:48;;;;;;;5.05;3.85;;;19.40;99.90;;;;;;4956252;28;20670;-68
2021/07/09 09:00:26;;;;;;;4.32;3.72;;;19.40;99.90;;;;;;4954874;28;20259;-68
2021/07/09 09:02:52;;;;;;;4.00;3.60;;;19.60;99.90;;;;;;4955850;28;20185;-68
2021/07/09 09:05:22;;;;;;;4.40;4.00;;;19.80;99.90;;;;;;4949633;28;20946;-69
2021/07/09 09:08:03;;;;;;;4.30;3.90;;;20.10;99.90;;;;;;4956020;28;20201;-69
2021/07/09 09:10:55;;;;;;;4.20;3.53;;;20.30;99.90;;;;;;4957252;28;20197;-69
2021/07/09 09:13:33;;;;;;;4.93;3.92;;;20.60;99.90;;;;;;4952468;28;20287;-69
2021/07/09 09:16:11;;;;;;;3.60;3.30;;;20.80;99.90;;;;;;4955138;28;20216;-69
2021/07/09 09:18:45;;;;;;;3.88;3.17;;;20.90;99.90;;;;;;4953418;28;20181;-70
2021/07/09 09:21:12;;;;;;;3.53;3.22;;;21.00;99.90;;;;;;4955191;28;20188;-70
2021/07/09 09:23:52;;;;;;;3.95;3.55;;;20.90;99.90;;;;;;4956164;28;20638;-69
2021/07/09 09:26:42;;;;;;;4.03;3.38;;;20.80;99.90;;;;;;4952604;28;20231;-70
2021/07/09 09:29:14;;;;;;;3.50;3.20;;;20.70;99.90;;;;;;4953812;28;20213;-69
2021/07/09 09:31:40;;;;;;;3.30;3.00;;;20.60;99.90;;;;;;4955102;28;20635;-70
2021/07/09 09:34:07;;;;;;;3.22;3.00;;;20.40;99.90;;;;;;4955233;28;20217;-72
2021/07/09 09:36:33;;;;;;;3.60;3.25;;;20.40;99.90;;;;;;4949688;28;20322;-70
2021/07/09 09:39:02;;;;;;;4.28;2.38;;;20.30;99.90;;;;;;4955584;28;20209;-71
2021/07/09 09:41:31;;;;;;;4.15;2.70;;;20.30;99.90;;;;;;4956815;28;20369;-70
2021/07/09 09:44:13;;;;;;;2.50;2.30;;;20.50;99.90;;;;;;4956646;28;20600;-70
2021/07/09 09:46:39;;;;;;;2.55;2.00;;;20.50;99.90;;;;;;4954932;28;20193;-69
2021/07/09 09:49:10;;;;;;;1.88;1.77;;;20.60;99.90;;;;;;4955804;28;20225;-70
2021/07/09 09:51:37;;;;;;;1.60;1.50;;;20.60;99.90;;;;;;4955568;28;20193;-69
2021/07/09 09:54:10;;;;;;;1.13;1.02;;;20.40;99.90;;;;;;4956323;28;20212;-69
2021/07/09 09:56:46;;;;;;;1.40;1.30;;;20.30;99.90;;;;;;4959357;28;20185;-71
2021/07/09 09:59:25;;;;;;;1.17;1.10;;;20.00;99.90;;;;;;4954327;28;20205;-69
2021/07/09 10:01:58;;;;;;;2.35;1.20;;;20.10;99.90;;;;;;4956006;28;20314;-70
2021/07/09 10:04:26;;;;;;;1.40;1.30;;;20.00;99.90;;;;;;4959952;28;20193;-70
2021/07/09 10:06:53;;;;;;;1.50;1.35;;;20.00;99.90;;;;;;4953491;28;20208;-69
2021/07/09 10:09:20;;;;;;;1.35;1.25;;;19.80;99.90;;;;;;4955854;28;20991;-70
2021/07/09 10:11:47;;;;;;;1.55;1.45;;;19.80;99.90;;;;;;4957374;28;20185;-70
2021/07/09 10:14:15;;;;;;;2.88;1.52;;;20.00;99.90;;;;;;4957286;28;20672;-69
2021/07/09 10:16:44;;;;;;;1.98;1.67;;;20.10;99.90;;;;;;4956885;28;20633;-69
2021/07/09 10:19:11;;;;;;;2.05;1.33;;;20.20;99.90;;;;;;4951739;28;21027;-68
2021/07/09 10:21:41;;;;;;;1.60;1.50;;;20.20;99.90;;;;;;4951315;28;20178;-68
2021/07/09 10:24:09;;;;;;;1.60;1.50;;;20.10;99.90;;;;;;4958500;28;20204;-68
2021/07/09 10:26:41;;;;;;;1.75;1.65;;;20.00;99.90;;;;;;4950562;28;20185;-69
2021/07/09 10:29:15;;;;;;;1.45;1.35;;;20.00;99.90;;;;;;4952881;28;20227;-68
2021/07/09 10:31:42;;;;;;;1.85;1.75;;;20.00;99.90;;;;;;4955403;28;20646;-68
2021/07/09 10:34:29;;;;;;;1.90;1.70;;;19.80;99.90;;;;;;4958522;28;20224;-69
2021/07/09 10:37:00;;;;;;;2.13;1.92;;;19.80;99.90;;;;;;4952090;28;20211;-68
2021/07/09 10:39:43;;;;;;;1.88;1.77;;;19.80;99.90;;;;;;4958378;28;20212;-68
2021/07/09 10:42:38;;;;;;;2.78;1.88;;;19.80;99.90;;;;;;4958717;28;20263;-68
2021/07/09 10:45:23;;;;;;;1.92;1.77;;;19.70;99.90;;;;;;4953394;28;20185;-68
2021/07/09 10:48:03;;;;;;;1.70;1.60;;;19.80;99.90;;;;;;4961737;28;20717;-68
2021/07/09 10:50:47;;;;;;;1.70;1.52;;;19.80;99.90;;;;;;4952317;28;20216;-69
2021/07/09 10:53:13;;;;;;;3.17;2.15;;;19.80;99.90;;;;;;4953735;28;20186;-68
2021/07/09 10:55:46;;;;;;;1.45;1.35;;;19.80;99.90;;;;;;4958244;28;20212;-69
2021/07/09 10:58:33;;;;;;;1.50;1.40;;;19.80;99.90;;;;;;4957680;28;20248;-68
2021/07/09 11:01:13;;;;;;;1.75;1.40;;;19.90;99.90;;;;;;4953956;28;20208;-70
2021/07/09 11:03:44;;;;;;;1.30;1.20;;;20.00;99.90;;;;;;4959056;28;20213;-70
2021/07/09 11:06:13;;;;;;;1.25;1.15;;;19.90;99.90;;;;;;4957732;28;20186;-69
2021/07/09 11:08:41;;;;;;;2.00;1.13;;;19.80;99.90;;;;;;4957117;28;20194;-72
2021/07/09 11:11:17;;;;;;;1.27;1.17;;;19.80;99.90;;;;;;4961787;28;20176;-70
2021/07/09 11:13:49;;;;;;;1.42;1.33;;;19.80;99.90;;;;;;4960253;28;20365;-72
2021/07/09 11:16:17;;;;;;;1.33;1.23;;;19.80;99.90;;;;;;4953252;28;20197;-69
2021/07/09 11:19:03;;;;;;;1.38;1.27;;;19.80;99.90;;;;;;4953509;28;20276;-68
2021/07/09 11:21:32;;;;;;;1.30;1.20;;;19.80;99.90;;;;;;4960825;28;20759;-69
2021/07/09 11:23:59;;;;;;;2.00;0.95;;;19.90;99.90;;;;;;4960350;28;20207;-69
2021/07/09 11:26:27;;;;;;;1.58;1.20;;;19.80;99.90;;;;;;4957882;28;20669;-70
2021/07/09 11:28:53;;;;;;;1.40;1.30;;;19.80;99.90;;;;;;4954446;28;20193;-69
2021/07/09 11:31:36;;;;;;;1.52;1.35;;;19.60;99.90;;;;;;4961214;28;20660;-69
2021/07/09 11:34:13;;;;;;;1.15;1.05;;;19.60;99.90;;;;;;4957342;28;20201;-70
2021/07/09 11:37:01;;;;;;;1.45;1.30;;;19.60;99.90;;;;;;4957082;28;20419;-69
2021/07/09 11:39:36;;;;;;;1.40;1.30;;;19.60;99.90;;;;;;4946834;28;20201;-70
2021/07/09 11:42:08;;;;;;;1.60;1.50;;;19.60;99.90;;;;;;4956292;28;20240;-70
2021/07/09 11:44:45;;;;;;;1.67;1.58;;;19.60;99.90;;;;;;4957252;28;20252;-70
2021/07/09 11:47:20;;;;;;;1.92;1.80;;;19.40;99.90;;;;;;4957102;28;20276;-70
2021/07/09 11:49:49;;;;;;;1.73;1.63;;;19.40;99.90;;;;;;4959990;28;20209;-70
2021/07/09 11:52:26;;;;;;;2.00;1.80;;;19.30;99.90;;;;;;4955440;28;20188;-71
2021/07/09 11:54:54;;;;;;;2.05;1.90;;;19.30;99.90;;;;;;4957187;28;20201;-69
2021/07/09 11:57:21;;;;;;;2.15;1.95;;;19.30;99.90;;;;;;4957205;28;20192;-69
2021/07/09 11:59:48;;;;;;;2.45;2.25;;;19.20;99.90;;;;;;4954769;28;20683;-70
2021/07/09 12:02:24;;;;;;;3.78;2.13;;;19.10;99.90;;;;;;4956703;28;20275;-69
2021/07/09 12:04:54;;;;;;;1.95;1.85;;;19.10;99.90;;;;;;4958953;28;20177;-70
2021/07/09 12:07:27;;;;;;;2.20;1.90;;;18.90;99.90;;;;;;4955770;28;20414;-70
2021/07/09 12:10:07;;;;;;;2.05;1.95;;;18.80;99.90;;;;;;4951946;28;20206;-69
2021/07/09 12:12:39;;;;;;;1.92;1.80;;;18.70;99.90;;;;;;4952518;28;20229;-68
2021/07/09 12:15:09;;;;;;;1.92;1.75;;;18.50;99.90;;;;;;4950704;28;20252;-69
2021/07/09 12:17:40;;;;;;;1.90;1.80;;;18.50;99.90;;;;;;4955483;28;20182;-69
2021/07/09 12:20:19;;;;;;;2.60;2.40;;;18.40;99.90;;;;;;4951994;28;20201;-69
2021/07/09 12:22:55;;;;;;;2.70;2.13;;;18.40;99.90;;;;;;4958140;28;20231;-70
2021/07/09 12:25:36;;;;;;;2.30;2.10;;;18.30;99.90;;;;;;4955242;28;20252;-69
2021/07/09 12:28:11;;;;;;;3.17;2.53;;;18.30;99.90;;;;;;4950474;28;20196;-70
2021/07/09 12:30:45;;;;;;;2.42;2.22;;;18.30;99.90;;;;;;4962207;28;20205;-70
2021/07/09 12:33:12;;;;;;;2.65;2.08;;;18.30;99.90;;;;;;4957894;28;20184;-70
2021/07/09 12:35:38;;;;;;;2.65;2.10;;;18.40;99.90;;;;;;4956052;28;20221;-69
2021/07/09 12:38:09;;;;;;;3.20;2.78;;;18.40;99.90;;;;;;4953791;28;20560;-69
2021/07/09 12:40:46;;;;;;;6.75;3.42;;;18.50;99.90;;;;;;4950286;28;20288;-72
2021/07/09 12:43:16;;;;;;;6.85;4.43;;;18.50;99.90;;;;;;4960154;28;20498;-71
2021/07/09 12:45:43;;;;;;;10.43;6.65;;;18.40;99.90;;;;;;4950668;28;20183;-69
2021/07/09 12:48:10;;;;;;;11.23;7.70;;;18.40;99.90;;;;;;4959332;28;20181;-69
2021/07/09 12:50:41;;;;;;;9.55;6.53;;;18.50;99.90;;;;;;4947927;28;20228;-69